Terminal Aerodrome Forecast
Issued by NWS

Home | Current Version | Previous Version | Text Only | Print | Product List | Glossary On
Versions: 1 2 3 4 5 6 7 8 9 10 11 12 13 14 15 16
832
FTUS45 KTFX 051725
TAFLWT
TAF
KLWT 051725Z 0518/0618 30012G22KT P6SM -SHSN SCT008 OVC015
      TEMPO 0518/0522 4SM -SN BR OVC008
     FM052300 30011KT P6SM VCSH SCT020 SCT035
     FM060400 31008KT 3SM BR VCSH SCT008 OVC035
      TEMPO 0606/0610 1/2SM FZFG BKN008=

USA.gov is the U.S. government's official web portal to all federal, state and local government web resources and services.